aviador You're here:

OTBD Decoded Metar

DOHA in QATAR
Report Time2017-11-24 20:00:00
UTC Time2017-11-24 20:07:01
Flight Rules vfr VFR
Wind330° at 11 kt
W.Decomp.*RWY 33: 11.0 kt HW 0.4 kt LCW
W.Rank330° ranks 3
Current wind is above 330° avg. (10.1)
Visibility9999 m
Phenomena:N/A
Clouds:N/A
Expected CloudBase > 3,600 ft AGL from Temp-Dew spread
CeilingNone
Temp22°C (ISA +7)
Dew Point13°C (57% RH)
AAT19.0°C
QNH1020 hPa
Density Alt823 ft
Elevation33 ft
Report Wrong Elevation
Raw Report
METAR OTBD 242000Z 33011KT CAVOK 22/13 Q1020 NOSIG=

Extra information for OTBD:More info

Metar Taf Metar & Taf Last 4 Metars F.Rules Stats Wind Profile Meteogram Temp Stats Airport Information Weather charts Add Link Nearby VenuesMetar ALERT Operation Metar Decoded Social comments